Main page
METAR-TAF:

METAR-TAF

Airports :

Ouagadougou, Burkina Faso

Ouagadougou Airport

latitude: 12-21N, longitude: 001-31W, elevation: 316 m

Current weather observation

The report was made 1 hour and 18 minutes ago, at 18:00 UTC
Wind 5 kt from the East
Temperature 32°C
Humidity 21%
Pressure 1012 hPa
Visibility: 8000 m

METAR: DFFD 211800Z 08005KT 8000 NSC 32/07 Q1012 NOSIG

Time: 19:18 (19:18 UTC)

Forecast

The report was made 2 hours and 18 minutes ago, at 17:00 UTC
Forecast valid from 21 at 18 UTC to 22 at 24 UTC
Wind 10 kt from the East
Visibility: 8000 m
Temporary
from 21 at 18 UTC to 21 at 20 UTC
Visibility: 4000 m
haze
Temporary
from 22 at 06 UTC to 22 at 10 UTC
Visibility: 4000 m
haze
Temporary
from 22 at 17 UTC to 22 at 20 UTC
Visibility: 4000 m
haze

TAF: DFFD 211700Z 2118/2224 09010KT 8000 NSC TEMPO 2118/2120 4000 HZ TEMPO 2206/2210 4000 HZ TEMPO 2217/2220 4000 HZ

Weather observations and forecasts of more than 4000 airports (METAR and TAF reports).

The available stations are represented by yellow and red dots on the map.

Hover mouse over dot to see the name of the station.

Then click to see weather observations and forecasts.

To change the map : click on the green buttons with a black cross to zoom in, on the green button with a dash to zoom out, or on the green arrows for adjacent maps.


METAR-TAF: